Time;durP1;ratioP1;P1;durP2;ratioP2;P2;SDS_P1;SDS_P2;PMS_P1;PMS_P2;Temp;Humidity;BMP_temperature;BMP_pressure;BME280_temperature;BME280_humidity;BME280_pressure;Samples;Min_cycle;Max_cycle;Signal;HPM_P1;HPM_P2
2021/01/25 00:04:03;;;;;;;20.53;10.13;;;;;;;4.17;60.08;97259.19;257527;1109;115189;-72
2021/01/25 00:09:05;;;;;;;18.57;9.23;;;;;;;4.20;60.16;97254.56;259751;1105;115799;-71
2021/01/25 00:14:07;;;;;;;17.42;8.73;;;;;;;4.25;59.99;97255.13;259649;1109;114863;-71
2021/01/25 00:19:10;;;;;;;21.37;9.50;;;;;;;4.28;59.68;97248.82;259727;1109;114809;-66
2021/01/25 00:24:13;;;;;;;21.15;9.20;;;;;;;4.33;59.44;97237.98;259690;1108;114877;-72
2021/01/25 00:29:15;;;;;;;16.55;8.35;;;;;;;4.36;58.63;97235.98;259682;1109;115609;-70
2021/01/25 00:34:17;;;;;;;17.90;8.20;;;;;;;4.39;58.81;97238.41;259705;1108;114764;-73
2021/01/25 00:39:20;;;;;;;19.00;8.97;;;;;;;4.39;58.74;97235.78;259627;1109;114773;-66
2021/01/25 00:44:22;;;;;;;17.32;8.25;;;;;;;4.38;58.96;97223.57;259704;1108;114925;-70
2021/01/25 00:49:24;;;;;;;15.60;7.43;;;;;;;4.39;58.29;97213.88;259683;1108;115516;-71
2021/01/25 00:54:26;;;;;;;16.57;7.70;;;;;;;4.36;58.00;97225.45;259725;1108;114879;-71
2021/01/25 00:59:29;;;;;;;15.30;7.93;;;;;;;4.36;58.10;97224.61;259659;1109;115072;-73
2021/01/25 01:04:31;;;;;;;19.97;8.73;;;;;;;4.39;58.37;97222.62;259688;1108;115416;-73
2021/01/25 01:09:33;;;;;;;17.35;8.45;;;;;;;4.39;57.52;97219.98;259743;1109;114810;-72
2021/01/25 01:14:36;;;;;;;18.17;8.97;;;;;;;4.39;57.84;97224.41;259703;1106;115151;-72
2021/01/25 01:19:38;;;;;;;18.12;9.48;;;;;;;4.36;57.33;97207.02;259620;1106;114858;-71
2021/01/25 01:24:40;;;;;;;18.13;8.57;;;;;;;4.36;58.08;97207.02;259761;1107;114662;-73
2021/01/25 01:29:42;;;;;;;18.83;9.33;;;;;;;4.34;57.61;97200.99;259711;1104;115095;-75
2021/01/25 01:34:45;;;;;;;15.50;8.60;;;;;;;4.35;57.92;97192.17;259706;1105;114681;-70
2021/01/25 01:39:48;;;;;;;18.23;8.77;;;;;;;4.33;57.25;97188.78;259733;1105;114824;-69
2021/01/25 01:44:50;;;;;;;18.87;9.00;;;;;;;4.31;56.72;97185.39;259777;1105;114877;-66
2021/01/25 01:49:52;;;;;;;20.57;8.63;;;;;;;4.27;56.63;97186.55;259756;1109;115568;-66
2021/01/25 01:54:58;;;;;;;17.30;7.97;;;;;;;4.24;57.55;97189.39;259720;1106;114732;-66
2021/01/25 02:00:04;;;;;;;18.37;8.55;;;;;;;4.23;56.48;97188.55;259757;1105;115115;-66
2021/01/25 02:05:15;;;;;;;17.20;8.50;;;;;;;4.23;56.85;97195.61;259665;1106;115104;-66
2021/01/25 02:10:22;;;;;;;16.12;8.68;;;;;;;4.20;56.51;97194.02;259693;1106;114842;-67
2021/01/25 02:15:25;;;;;;;22.83;9.20;;;;;;;4.18;56.91;97193.29;259734;1105;114882;-67
2021/01/25 02:20:33;;;;;;;18.95;9.73;;;;;;;4.15;56.75;97198.75;259725;1105;115539;-66
2021/01/25 02:25:45;;;;;;;19.52;10.18;;;;;;;4.12;57.46;97206.84;259742;1105;115118;-67
2021/01/25 02:30:48;;;;;;;21.50;10.10;;;;;;;4.08;57.08;97205.37;259704;1108;114959;-67
2021/01/25 02:35:50;;;;;;;22.17;11.43;;;;;;;4.03;56.27;97210.91;259672;1105;114814;-70
2021/01/25 02:40:54;;;;;;;22.93;11.50;;;;;;;4.01;56.42;97214.61;259748;1105;115218;-71
2021/01/25 02:45:57;;;;;;;22.97;11.77;;;;;;;3.99;57.08;97213.85;259698;1106;115120;-70
2021/01/25 02:50:59;;;;;;;22.50;12.57;;;;;;;3.98;56.44;97212.17;259744;1107;115059;-71
2021/01/25 02:56:02;;;;;;;25.90;12.47;;;;;;;3.98;56.69;97209.54;259702;1106;114954;-69
2021/01/25 03:01:04;;;;;;;23.22;11.63;;;;;;;3.97;57.48;97213.09;259779;1105;114811;-67
2021/01/25 03:06:09;;;;;;;23.77;11.73;;;;;;;3.95;57.13;97207.95;259713;1108;115012;-68
2021/01/25 03:11:12;;;;;;;24.12;12.40;;;;;;;3.95;57.20;97212.37;259708;1108;114995;-67
2021/01/25 03:16:16;;;;;;;21.65;11.50;;;;;;;3.92;57.35;97202.88;259714;1106;115283;-69
2021/01/25 03:21:19;;;;;;;22.32;11.05;;;;;;;3.93;57.67;97209.82;259704;1109;115051;-72
2021/01/25 03:26:25;;;;;;;23.87;11.47;;;;;;;3.92;57.68;97208.14;259770;1105;114874;-70
2021/01/25 03:31:27;;;;;;;22.47;10.77;;;;;;;3.90;57.50;97212.64;259769;1106;115622;-73
2021/01/25 03:36:30;;;;;;;27.47;12.37;;;;;;;3.89;57.24;97215.39;259561;1107;115255;-66
2021/01/25 03:41:32;;;;;;;24.72;11.95;;;;;;;3.87;57.29;97218.10;259757;1105;115222;-68
2021/01/25 03:46:35;;;;;;;22.10;11.47;;;;;;;3.83;56.56;97211.36;259692;1109;115730;-68
2021/01/25 03:51:37;;;;;;;26.05;12.70;;;;;;;3.82;56.74;97211.47;259786;1105;114936;-67
2021/01/25 03:56:43;;;;;;;22.67;11.70;;;;;;;3.77;56.93;97220.51;259744;1105;115104;-67
2021/01/25 04:01:45;;;;;;;19.87;11.97;;;;;;;3.73;57.32;97205.84;259213;1105;115373;-67
2021/01/25 04:06:48;;;;;;;24.77;11.55;;;;;;;3.70;57.02;97207.82;259783;1105;115223;-69
2021/01/25 04:11:50;;;;;;;20.03;10.63;;;;;;;3.69;57.55;97206.14;259739;1105;115760;-69
2021/01/25 04:16:55;;;;;;;21.55;11.05;;;;;;;3.65;57.71;97208.12;259700;1105;114816;-68
2021/01/25 04:21:57;;;;;;;23.57;12.40;;;;;;;3.64;57.33;97202.97;259785;1105;114789;-68
2021/01/25 04:26:59;;;;;;;26.50;13.03;;;;;;;3.64;57.46;97203.81;259721;1105;115016;-70
2021/01/25 04:32:02;;;;;;;21.90;12.05;;;;;;;3.63;57.62;97206.52;259719;1106;114997;-68
2021/01/25 04:37:04;;;;;;;24.60;12.20;;;;;;;3.59;57.52;97199.78;259749;1105;115293;-69
2021/01/25 04:42:06;;;;;;;21.20;11.75;;;;;;;3.56;57.35;97195.55;259800;1109;115630;-70
2021/01/25 04:47:10;;;;;;;24.50;13.47;;;;;;;3.53;57.92;97193.11;259706;1105;115225;-68
2021/01/25 04:52:13;;;;;;;26.73;13.90;;;;;;;3.51;57.57;97193.22;259686;1105;114963;-70
2021/01/25 04:57:16;;;;;;;24.77;12.80;;;;;;;3.51;57.20;97195.02;259824;1105;114989;-70
2021/01/25 05:02:19;;;;;;;27.50;14.10;;;;;;;3.49;57.35;97184.58;259714;1109;115471;-71
2021/01/25 05:07:21;;;;;;;23.67;13.83;;;;;;;3.49;58.16;97181.94;259740;1106;115432;-70
2021/01/25 05:12:24;;;;;;;26.47;13.27;;;;;;;3.49;57.81;97184.58;259786;1105;115126;-71
2021/01/25 05:17:26;;;;;;;28.10;13.63;;;;;;;3.49;57.91;97184.58;259513;1105;115075;-71
2021/01/25 05:22:36;;;;;;;30.92;14.73;;;;;;;3.46;57.62;97176.03;259789;1109;115008;-72
2021/01/25 05:27:41;;;;;;;26.93;14.67;;;;;;;3.43;57.68;97189.37;259751;1105;115049;-72
2021/01/25 05:32:47;;;;;;;;;;;;;;;3.40;57.74;97200.95;259812;1105;115249;-69
2021/01/25 05:38:02;;;;;;;24.52;13.68;;;;;;;3.34;58.13;97209.22;259779;1105;102636;-68
2021/01/25 05:43:12;;;;;;;26.27;14.97;;;;;;;3.28;57.70;97196.45;259718;1106;115054;-68
2021/01/25 05:48:15;;;;;;;26.42;14.05;;;;;;;3.24;57.80;97198.42;259750;1105;114979;-69
2021/01/25 05:53:17;;;;;;;26.97;14.00;;;;;;;3.24;57.82;97201.05;259715;1106;114903;-68
2021/01/25 05:58:21;;;;;;;25.35;13.70;;;;;;;3.25;57.86;97194.01;259775;1105;115179;-68
2021/01/25 06:03:24;;;;;;;28.47;14.07;;;;;;;3.27;58.23;97198.23;259743;1105;114935;-68
2021/01/25 06:08:40;;;;;;;34.17;15.43;;;;;;;3.32;58.69;97203.20;259695;1105;114866;-68
2021/01/25 06:14:07;;;;;;;27.60;13.53;;;;;;;3.36;58.73;97206.48;259754;1105;114776;-70
2021/01/25 06:19:09;;;;;;;26.80;13.07;;;;;;;3.39;58.04;97209.75;259722;1105;115344;-70
2021/01/25 06:24:13;;;;;;;26.90;13.28;;;;;;;3.38;58.22;97210.70;259729;1108;115026;-67
2021/01/25 06:29:20;;;;;;;32.13;14.30;;;;;;;3.34;58.62;97222.36;259749;1105;115180;-68
2021/01/25 06:34:25;;;;;;;31.03;15.87;;;;;;;3.30;58.64;97223.50;259649;1105;115578;-68
2021/01/25 06:39:33;;;;;;;31.87;14.87;;;;;;;3.30;58.48;97228.75;259770;1105;115015;-67
2021/01/25 06:44:36;;;;;;;26.93;14.87;;;;;;;3.30;58.83;97232.22;259749;1105;114822;-68
2021/01/25 06:49:39;;;;;;;30.70;14.30;;;;;;;3.30;58.42;97232.22;259742;1105;115206;-68
2021/01/25 06:54:43;;;;;;;25.97;14.43;;;;;;;3.26;58.86;97227.23;259758;1105;114875;-69
2021/01/25 06:59:49;;;;;;;27.87;14.80;;;;;;;3.28;58.72;97241.98;259615;1106;115577;-73
2021/01/25 07:04:57;;;;;;;;;;;;;;;3.31;58.38;97233.06;259749;1106;115657;-69
2021/01/25 07:10:04;;;;;;;30.53;14.13;;;;;;;3.34;58.66;97235.50;259789;1106;103392;-70
2021/01/25 07:15:08;;;;;;;28.67;13.78;;;;;;;3.41;58.03;97239.44;259758;1108;114944;-69
2021/01/25 07:20:12;;;;;;;31.40;15.03;;;;;;;3.43;59.31;97240.20;259626;1105;115188;-70
2021/01/25 07:25:15;;;;;;;27.07;14.23;;;;;;;3.43;58.61;97250.72;259670;1105;114828;-69
2021/01/25 07:30:22;;;;;;;27.07;14.40;;;;;;;3.45;58.60;97255.87;259713;1105;115008;-74
2021/01/25 07:35:27;;;;;;;26.47;14.10;;;;;;;3.46;59.16;97249.66;259695;1106;115004;-68
2021/01/25 07:40:30;;;;;;;30.80;14.33;;;;;;;3.48;58.77;97263.57;259700;1105;114875;-67
2021/01/25 07:45:33;;;;;;;29.33;14.73;;;;;;;3.44;58.93;97252.40;259743;1105;114974;-67
2021/01/25 07:50:36;;;;;;;28.13;13.93;;;;;;;3.46;59.58;97255.76;259720;1105;114908;-69
2021/01/25 07:55:38;;;;;;;37.85;15.43;;;;;;;3.46;59.50;97254.92;259725;1105;115026;-67
2021/01/25 08:00:41;;;;;;;29.67;14.83;;;;;;;3.47;59.59;97254.00;259714;1105;114903;-66
2021/01/25 08:05:50;;;;;;;28.50;14.65;;;;;;;3.44;59.88;97254.19;259749;1106;115003;-69
2021/01/25 08:10:54;;;;;;;29.70;15.13;;;;;;;3.41;59.65;97257.00;259672;1109;115644;-67
2021/01/25 08:16:11;;;;;;;29.17;14.60;;;;;;;3.39;59.90;97259.71;259658;1105;115530;-66
2021/01/25 08:21:20;;;;;;;30.72;14.98;;;;;;;3.40;60.43;97256.16;258589;1105;114916;-67
2021/01/25 08:26:28;;;;;;;29.87;14.60;;;;;;;3.43;60.00;97249.84;258774;1106;115021;-68
2021/01/25 08:31:43;;;;;;;28.60;15.67;;;;;;;3.46;60.53;97260.18;259755;1108;115389;-68
2021/01/25 08:37:07;;;;;;;30.20;15.00;;;;;;;3.46;60.52;97263.64;259730;1105;114804;-65
2021/01/25 08:42:17;;;;;;;29.42;14.50;;;;;;;3.47;60.21;97262.73;259692;1108;114953;-71
2021/01/25 08:47:28;;;;;;;31.00;15.70;;;;;;;3.50;60.75;97259.91;259795;1105;114844;-71
2021/01/25 08:52:44;;;;;;;27.97;14.63;;;;;;;3.54;60.86;97263.20;259739;1105;115054;-70
2021/01/25 08:57:47;;;;;;;27.77;14.30;;;;;;;3.57;61.17;97263.01;259758;1106;114832;-68
2021/01/25 09:02:55;;;;;;;27.93;15.30;;;;;;;3.61;60.56;97261.87;259702;1106;115079;-69
2021/01/25 09:07:59;;;;;;;29.53;15.53;;;;;;;3.61;60.30;97268.92;259697;1105;114902;-68
2021/01/25 09:13:01;;;;;;;29.00;15.15;;;;;;;3.60;60.84;97275.97;259702;1105;115103;-69
2021/01/25 09:18:04;;;;;;;26.97;15.77;;;;;;;3.62;60.62;97281.95;259730;1108;114952;-68
2021/01/25 09:23:07;;;;;;;27.47;16.47;;;;;;;3.65;61.18;97273.04;259753;1109;115101;-68
2021/01/25 09:28:09;;;;;;;27.37;15.90;;;;;;;3.65;60.90;97275.67;259704;1109;114800;-68
2021/01/25 09:33:11;;;;;;;28.10;14.77;;;;;;;3.65;60.98;97276.52;259687;1109;114919;-68
2021/01/25 09:38:14;;;;;;;25.47;16.30;;;;;;;3.64;61.57;97269.57;259741;1105;114921;-69
2021/01/25 09:43:17;;;;;;;25.23;15.50;;;;;;;3.62;60.74;97279.33;259646;1109;114838;-68
2021/01/25 09:48:19;;;;;;;29.10;16.37;;;;;;;3.63;61.55;97277.54;259776;1109;115489;-68
2021/01/25 09:53:21;;;;;;;26.47;15.37;;;;;;;3.62;61.09;97276.70;259745;1105;115120;-68
2021/01/25 09:58:24;;;;;;;28.03;15.37;;;;;;;3.66;61.21;97282.61;259722;1108;115713;-68
2021/01/25 10:03:26;;;;;;;24.40;14.85;;;;;;;3.75;61.36;97287.31;259765;1105;114992;-67
2021/01/25 10:08:29;;;;;;;20.93;13.77;;;;;;;3.78;60.85;97285.33;259722;1108;115366;-68
2021/01/25 10:13:31;;;;;;;24.17;13.57;;;;;;;3.81;61.09;97283.45;258154;1109;116580;-67
2021/01/25 10:18:34;;;;;;;21.33;13.27;;;;;;;3.80;61.01;97287.84;259649;1106;114922;-67
2021/01/25 10:23:36;;;;;;;23.57;13.03;;;;;;;3.88;61.63;97293.48;259745;1106;116613;-67
2021/01/25 10:28:38;;;;;;;20.40;13.78;;;;;;;3.89;61.00;97286.44;259783;1105;114941;-67
2021/01/25 10:33:40;;;;;;;20.97;13.77;;;;;;;3.90;61.79;97291.59;259750;1105;115378;-67
2021/01/25 10:38:44;;;;;;;21.60;14.07;;;;;;;3.89;61.22;97292.53;259747;1105;114740;-67
2021/01/25 10:43:47;;;;;;;26.00;14.50;;;;;;;3.83;61.00;97295.55;259712;1106;114914;-67
2021/01/25 10:48:49;;;;;;;24.67;15.63;;;;;;;3.82;61.83;97299.13;259719;1108;114655;-67
2021/01/25 10:53:51;;;;;;;25.80;15.70;;;;;;;3.86;62.08;97300.63;259762;1109;115050;-68
2021/01/25 10:58:53;;;;;;;26.83;15.63;;;;;;;3.91;61.99;97289.83;259761;1105;114778;-69
2021/01/25 11:03:55;;;;;;;28.23;15.40;;;;;;;3.86;61.93;97287.47;259823;1106;115277;-67
2021/01/25 11:08:58;;;;;;;26.03;16.07;;;;;;;3.81;61.25;97292.19;259786;1106;115363;-67
2021/01/25 11:14:00;;;;;;;35.60;19.57;;;;;;;3.74;61.41;97298.78;259748;1105;114974;-67
2021/01/25 11:19:02;;;;;;;33.28;19.77;;;;;;;3.65;61.86;97299.34;259748;1106;115650;-67
2021/01/25 11:24:06;;;;;;;34.33;20.23;;;;;;;3.59;62.01;97297.92;259749;1108;114826;-70
2021/01/25 11:29:10;;;;;;;36.48;20.95;;;;;;;3.59;62.35;97304.98;259745;1109;114830;-67
2021/01/25 11:34:13;;;;;;;36.00;20.95;;;;;;;3.56;62.24;97293.70;259742;1108;115792;-66
2021/01/25 11:39:15;;;;;;;39.77;20.50;;;;;;;3.59;62.73;97294.45;259704;1108;115270;-64
2021/01/25 11:44:18;;;;;;;37.63;20.60;;;;;;;3.66;62.72;97303.66;259689;1106;114964;-65
2021/01/25 11:49:21;;;;;;;33.83;19.80;;;;;;;3.68;62.25;97305.26;259733;1105;115226;-65
2021/01/25 11:54:24;;;;;;;30.85;19.73;;;;;;;3.67;63.18;97305.33;259743;1107;115520;-65
2021/01/25 11:59:26;;;;;;;30.50;18.13;;;;;;;3.59;62.98;97308.45;259767;1105;114862;-65
2021/01/25 12:04:28;;;;;;;31.73;19.23;;;;;;;3.64;62.57;97310.81;259714;1105;115028;-64
2021/01/25 12:09:30;;;;;;;29.50;18.20;;;;;;;3.60;62.94;97314.55;259783;1105;115187;-65
2021/01/25 12:14:32;;;;;;;27.90;16.80;;;;;;;3.55;62.84;97320.10;259728;1105;115205;-65
2021/01/25 12:19:36;;;;;;;34.35;18.67;;;;;;;3.50;63.15;97306.41;259756;1105;115149;-64
2021/01/25 12:24:38;;;;;;;30.30;18.43;;;;;;;3.46;63.07;97318.87;259735;1105;114960;-65
2021/01/25 12:29:40;;;;;;;28.07;17.17;;;;;;;3.47;63.30;97314.48;259721;1106;115253;-65
2021/01/25 12:34:43;;;;;;;22.25;14.23;;;;;;;3.56;63.60;97316.52;259715;1105;115476;-65
2021/01/25 12:39:45;;;;;;;21.97;13.03;;;;;;;3.68;63.17;97315.78;259709;1109;115067;-66
2021/01/25 12:44:47;;;;;;;20.52;12.33;;;;;;;3.76;62.97;97334.55;259696;1105;114912;-65
2021/01/25 12:49:50;;;;;;;19.70;11.80;;;;;;;3.75;63.17;97334.66;259677;1105;114921;-65
2021/01/25 12:54:52;;;;;;;21.50;11.93;;;;;;;3.68;62.96;97342.09;259727;1105;114974;-66
2021/01/25 12:59:54;;;;;;;20.92;12.37;;;;;;;3.58;62.71;97355.90;259687;1108;115491;-66
2021/01/25 13:04:57;;;;;;;22.20;13.33;;;;;;;3.51;62.56;97366.78;259777;1105;114928;-66
2021/01/25 13:09:59;;;;;;;19.32;10.43;;;;;;;3.53;62.44;97374.56;259694;1106;114754;-66
2021/01/25 13:15:01;;;;;;;16.53;9.10;;;;;;;3.61;62.88;97380.22;259698;1109;114861;-67
2021/01/25 13:20:05;;;;;;;16.87;8.13;;;;;;;3.51;62.34;97385.19;259478;1108;115369;-76
2021/01/25 13:25:12;;;;;;;18.90;9.15;;;;;;;3.47;62.33;97393.37;259740;1106;114872;-74
2021/01/25 13:30:20;;;;;;;18.93;9.17;;;;;;;3.39;62.18;97403.48;259679;1105;114761;-75
2021/01/25 13:35:30;;;;;;;17.50;9.53;;;;;;;3.37;63.04;97402.74;259707;1106;114629;-76
2021/01/25 13:40:43;;;;;;;18.63;9.63;;;;;;;3.36;62.87;97412.39;259684;1108;115121;-74
2021/01/25 13:45:50;;;;;;;19.77;11.22;;;;;;;3.32;63.27;97421.39;259651;1105;114640;-74
2021/01/25 13:50:53;;;;;;;24.60;13.53;;;;;;;3.22;63.40;97428.12;258949;1107;115158;-73
2021/01/25 13:55:56;;;;;;;23.20;13.03;;;;;;;3.18;63.36;97431.87;259637;1108;114964;-72
2021/01/25 14:01:01;;;;;;;25.33;13.53;;;;;;;3.20;64.10;97430.02;259731;1105;115083;-74
2021/01/25 14:06:05;;;;;;;26.27;13.30;;;;;;;3.25;64.00;97439.31;259693;1106;114933;-73
2021/01/25 14:11:12;;;;;;;23.63;12.97;;;;;;;3.27;64.44;97439.23;259721;1106;115009;-69
2021/01/25 14:16:15;;;;;;;22.17;13.30;;;;;;;3.36;64.84;97446.56;259788;1105;116684;-71
2021/01/25 14:21:19;;;;;;;20.87;12.73;;;;;;;3.36;64.45;97454.45;259753;1106;114776;-70
2021/01/25 14:26:22;;;;;;;20.52;12.05;;;;;;;3.38;64.00;97454.38;259714;1109;114979;-69
2021/01/25 14:31:25;;;;;;;18.30;11.17;;;;;;;3.32;63.94;97464.30;259674;1109;115070;-69
2021/01/25 14:36:27;;;;;;;20.27;12.00;;;;;;;3.25;64.22;97464.75;259228;1108;115336;-70
2021/01/25 14:41:30;;;;;;;22.25;12.55;;;;;;;3.19;64.11;97471.20;259348;1109;115242;-69
2021/01/25 14:46:32;;;;;;;22.50;13.50;;;;;;;3.22;64.79;97478.91;259713;1106;115363;-68
2021/01/25 14:51:34;;;;;;;24.10;13.47;;;;;;;3.22;64.88;97484.17;259722;1105;114814;-69
2021/01/25 14:56:37;;;;;;;20.33;12.20;;;;;;;3.21;64.47;97495.63;259719;1105;115262;-69
2021/01/25 15:01:39;;;;;;;24.00;13.27;;;;;;;3.22;64.58;97499.10;259674;1105;114960;-69
2021/01/25 15:06:42;;;;;;;21.57;13.28;;;;;;;3.27;64.44;97507.59;259771;1105;115177;-69
2021/01/25 15:11:44;;;;;;;24.67;13.33;;;;;;;3.30;64.40;97512.67;259775;1105;114858;-69
2021/01/25 15:16:46;;;;;;;28.10;15.77;;;;;;;3.27;64.42;97518.10;259728;1105;114808;-69
2021/01/25 15:21:53;;;;;;;24.20;13.32;;;;;;;3.23;64.35;97516.59;259792;1105;115349;-69
2021/01/25 15:26:56;;;;;;;25.20;14.65;;;;;;;3.22;64.12;97525.39;259820;1105;114756;-69
2021/01/25 15:31:59;;;;;;;24.07;13.95;;;;;;;3.26;64.11;97532.16;259738;1105;114892;-70
2021/01/25 15:37:01;;;;;;;31.93;15.20;;;;;;;3.29;64.39;97543.38;259800;1105;114962;-70
2021/01/25 15:42:04;;;;;;;28.53;13.87;;;;;;;3.27;63.80;97552.28;259786;1105;114691;-70
2021/01/25 15:47:06;;;;;;;26.73;14.27;;;;;;;3.28;64.15;97567.95;259815;1105;114815;-71
2021/01/25 15:52:10;;;;;;;24.00;12.53;;;;;;;3.28;63.50;97574.99;259826;1105;114908;-70
2021/01/25 15:57:12;;;;;;;29.85;14.73;;;;;;;3.28;64.37;97577.63;259780;1105;114903;-70
2021/01/25 16:02:15;;;;;;;26.60;14.43;;;;;;;3.28;64.13;97582.88;259831;1105;115272;-69
2021/01/25 16:07:20;;;;;;;18.98;10.82;;;;;;;3.29;64.09;97587.20;259807;1105;115664;-70
2021/01/25 16:12:22;;;;;;;26.83;14.33;;;;;;;3.23;63.57;97583.15;257740;1105;115109;-73
2021/01/25 16:17:31;;;;;;;26.43;14.40;;;;;;;3.15;63.48;97598.48;257801;1105;114418;-69
2021/01/25 16:22:34;;;;;;;25.08;14.18;;;;;;;3.12;63.35;97603.06;259675;1103;114711;-70
2021/01/25 16:27:36;;;;;;;25.10;13.80;;;;;;;3.15;64.10;97608.99;254156;1105;114691;-71
2021/01/25 16:32:40;;;;;;;26.27;13.43;;;;;;;3.13;63.85;97610.03;258265;1103;115072;-69
2021/01/25 16:37:43;;;;;;;28.57;15.08;;;;;;;3.14;64.01;97620.45;259879;1105;115101;-69
2021/01/25 16:42:45;;;;;;;25.80;13.37;;;;;;;3.17;63.61;97625.55;259820;1105;114863;-69
2021/01/25 16:47:48;;;;;;;29.42;15.70;;;;;;;3.15;64.08;97630.02;259831;1105;114837;-71
2021/01/25 16:52:51;;;;;;;27.30;15.05;;;;;;;3.16;63.38;97628.23;259791;1105;114843;-69
2021/01/25 16:57:54;;;;;;;28.87;16.32;;;;;;;3.14;63.81;97630.96;259809;1105;115125;-69
2021/01/25 17:02:57;;;;;;;29.23;15.77;;;;;;;3.15;63.65;97632.65;259769;1105;114756;-71
2021/01/25 17:08:02;;;;;;;31.25;15.85;;;;;;;3.16;63.34;97634.37;259716;1105;115519;-71
2021/01/25 17:13:06;;;;;;;24.75;13.53;;;;;;;3.13;63.30;97639.79;259828;1105;114945;-69
2021/01/25 17:18:08;;;;;;;29.07;16.30;;;;;;;3.16;63.44;97634.37;259738;1104;114894;-69
2021/01/25 17:23:11;;;;;;;26.90;13.83;;;;;;;3.20;63.37;97635.89;259769;1105;115107;-69
2021/01/25 17:28:20;;;;;;;28.10;14.03;;;;;;;3.21;64.00;97639.36;259759;1105;114934;-70
2021/01/25 17:33:25;;;;;;;29.48;15.58;;;;;;;3.23;63.71;97645.40;259709;1105;114830;-69
2021/01/25 17:38:28;;;;;;;25.65;14.40;;;;;;;3.23;63.10;97650.66;259804;1106;114643;-71
2021/01/25 17:43:32;;;;;;;31.10;15.87;;;;;;;3.23;63.78;97642.77;259675;1105;114905;-71
2021/01/25 17:48:45;;;;;;;27.07;14.68;;;;;;;3.15;63.28;97647.58;259788;1105;115339;-70
2021/01/25 17:53:48;;;;;;;29.13;15.33;;;;;;;3.15;63.44;97650.20;259748;1105;114951;-71
2021/01/25 17:58:50;;;;;;;24.53;13.80;;;;;;;3.15;63.79;97660.72;259768;1105;115483;-71
2021/01/25 18:03:53;;;;;;;22.42;13.13;;;;;;;3.07;63.41;97659.36;259818;1106;115394;-69
2021/01/25 18:08:58;;;;;;;26.23;14.63;;;;;;;3.01;63.64;97662.31;259771;1108;114553;-72
2021/01/25 18:14:08;;;;;;;27.77;14.63;;;;;;;2.99;63.64;97660.69;258906;1106;115100;-77
2021/01/25 18:19:11;;;;;;;25.47;14.30;;;;;;;2.98;63.72;97669.52;257308;1105;116481;-75
2021/01/25 18:24:20;;;;;;;34.00;15.80;;;;;;;2.99;63.58;97666.81;259070;1105;114957;-77
2021/01/25 18:29:48;;;;;;;27.50;15.38;;;;;;;3.07;63.52;97677.75;259762;1105;115014;-78
2021/01/25 18:34:58;;;;;;;29.20;16.33;;;;;;;3.17;63.75;97672.02;259801;1103;115110;-80
2021/01/25 18:40:20;;;;;;;28.07;14.33;;;;;;;3.22;63.83;97680.48;259794;1105;114939;-78
2021/01/25 18:45:48;;;;;;;30.30;16.20;;;;;;;3.22;63.65;97681.33;257957;1108;114753;-79
2021/01/25 18:50:53;;;;;;;26.17;15.13;;;;;;;3.19;63.21;97692.00;259691;1109;114794;-79
2021/01/25 18:56:03;;;;;;;24.95;14.85;;;;;;;3.13;63.75;97697.61;259721;1104;115368;-76
2021/01/25 19:01:11;;;;;;;26.33;14.47;;;;;;;3.10;63.36;97704.81;259709;1105;114908;-77
2021/01/25 19:06:31;;;;;;;24.33;15.33;;;;;;;3.05;63.35;97707.66;259214;1105;114957;-75
2021/01/25 19:11:44;;;;;;;26.70;14.83;;;;;;;3.04;63.78;97714.70;259736;1105;115194;-75
2021/01/25 19:16:48;;;;;;;24.97;14.83;;;;;;;3.04;63.97;97719.96;259674;1105;115173;-75
2021/01/25 19:21:55;;;;;;;;;;;;;;;3.08;63.99;97723.28;259700;1105;115124;-70
2021/01/25 19:27:35;;;;;;;25.23;14.73;;;;;;;3.08;63.87;97733.78;259530;1105;104190;-82
2021/01/25 19:32:42;;;;;;;22.73;13.57;;;;;;;3.05;63.99;97731.32;259811;1105;114908;-76
2021/01/25 19:37:57;;;;;;;;;;;;;;;;;;;;;
2021/01/25 19:43:49;;;;;;;24.90;14.67;;;;;;;3.12;63.60;97734.47;258495;1105;114865;-77
2021/01/25 19:49:16;;;;;;;23.80;13.43;;;;;;;3.12;63.71;97739.73;258894;1105;115341;-76
2021/01/25 19:54:26;;;;;;;23.23;13.60;;;;;;;3.11;63.95;97745.92;259710;1105;114495;-77
2021/01/25 19:59:30;;;;;;;26.90;14.40;;;;;;;3.14;63.72;97748.40;258919;1105;115254;-79
2021/01/25 20:04:46;;;;;;;21.20;12.68;;;;;;;3.21;63.89;97755.87;259728;1109;114749;-77
2021/01/25 20:10:04;;;;;;;25.60;14.00;;;;;;;3.16;63.71;97768.42;259646;1105;114637;-77
2021/01/25 20:15:39;;;;;;;23.93;13.93;;;;;;;3.06;63.16;97762.80;255468;1105;114986;-78
2021/01/25 20:20:46;;;;;;;26.50;15.63;;;;;;;3.10;63.97;97765.27;259684;1107;114959;-79
2021/01/25 20:26:00;;;;;;;28.20;15.40;;;;;;;3.11;63.77;97777.47;259735;1105;115118;-75
2021/01/25 20:31:12;;;;;;;31.73;17.80;;;;;;;3.18;63.94;97782.31;259671;1105;114679;-76
2021/01/25 20:36:24;;;;;;;33.30;18.47;;;;;;;3.24;63.39;97791.67;259815;1105;114754;-76
2021/01/25 20:41:34;;;;;;;31.93;17.03;;;;;;;3.21;63.97;97790.04;259759;1105;114839;-75
2021/01/25 20:46:42;;;;;;;32.27;16.93;;;;;;;3.15;64.01;97797.40;259626;1105;114639;-73
2021/01/25 20:51:56;;;;;;;33.45;17.77;;;;;;;3.10;64.10;97805.53;259785;1105;114624;-70
2021/01/25 20:56:59;;;;;;;34.85;18.75;;;;;;;3.08;64.37;97808.22;258954;1105;114777;-71
2021/01/25 21:02:01;;;;;;;33.20;17.13;;;;;;;3.04;64.17;97819.83;257482;1105;114755;-70
2021/01/25 21:07:05;;;;;;;30.25;16.32;;;;;;;2.94;64.15;97815.97;259835;1103;114906;-69
2021/01/25 21:12:08;;;;;;;27.63;15.90;;;;;;;2.91;64.71;97821.37;259783;1105;115466;-68
2021/01/25 21:17:11;;;;;;;29.42;16.75;;;;;;;2.97;65.33;97828.95;259795;1105;114823;-69
2021/01/25 21:22:15;;;;;;;25.55;14.63;;;;;;;3.05;65.20;97828.56;259766;1104;115077;-68
2021/01/25 21:27:18;;;;;;;22.37;13.18;;;;;;;3.04;64.91;97840.85;259701;1106;114965;-69
2021/01/25 21:32:21;;;;;;;25.77;14.63;;;;;;;2.97;64.66;97839.47;256973;1106;115986;-68
2021/01/25 21:37:24;;;;;;;22.10;13.10;;;;;;;2.94;64.75;97851.91;259747;1109;115008;-68
2021/01/25 21:42:29;;;;;;;24.07;13.88;;;;;;;2.95;65.08;97856.23;259701;1105;114919;-68
2021/01/25 21:47:31;;;;;;;19.05;11.45;;;;;;;2.89;64.73;97856.53;259710;1105;114954;-68
2021/01/25 21:52:34;;;;;;;20.50;11.83;;;;;;;2.83;64.62;97863.81;259706;1105;115031;-69
2021/01/25 21:57:36;;;;;;;22.00;12.15;;;;;;;2.81;65.23;97862.17;259752;1109;115097;-68
2021/01/25 22:02:40;;;;;;;21.07;12.77;;;;;;;2.89;65.32;97865.30;259695;1108;115096;-68
2021/01/25 22:07:44;;;;;;;20.15;12.13;;;;;;;2.94;64.87;97878.19;259721;1105;115362;-68
2021/01/25 22:12:46;;;;;;;21.33;12.97;;;;;;;2.93;64.79;97877.34;259804;1105;114846;-69
2021/01/25 22:17:49;;;;;;;24.00;13.17;;;;;;;2.91;64.85;97886.22;259701;1108;115682;-69
2021/01/25 22:22:52;;;;;;;19.85;12.33;;;;;;;2.88;64.65;97892.47;259660;1108;115227;-69
2021/01/25 22:27:56;;;;;;;24.73;13.20;;;;;;;2.90;64.71;97892.41;259669;1106;115136;-68
2021/01/25 22:32:59;;;;;;;23.83;12.70;;;;;;;3.01;64.90;97898.82;259746;1106;115712;-69
2021/01/25 22:38:05;;;;;;;20.95;13.35;;;;;;;3.00;64.28;97898.91;259733;1108;114942;-70
2021/01/25 22:43:17;;;;;;;20.57;12.67;;;;;;;2.98;64.41;97916.52;259596;1109;115331;-76
2021/01/25 22:48:31;;;;;;;22.32;12.40;;;;;;;3.00;63.96;97910.27;259691;1108;115153;-76
2021/01/25 22:53:36;;;;;;;21.00;11.47;;;;;;;2.93;64.10;97919.39;259691;1105;115056;-74
2021/01/25 22:58:43;;;;;;;21.35;11.40;;;;;;;2.88;63.99;97918.75;259756;1106;115058;-76
2021/01/25 23:03:53;;;;;;;24.13;13.93;;;;;;;2.83;63.77;97918.98;259646;1109;115179;-78
2021/01/25 23:08:55;;;;;;;23.87;13.35;;;;;;;2.81;63.89;97927.86;259679;1109;115079;-74
2021/01/25 23:13:57;;;;;;;21.25;12.43;;;;;;;2.78;63.74;97930.63;259784;1105;114999;-72